Time;durP1;ratioP1;P1;durP2;ratioP2;P2;SDS_P1;SDS_P2;PMS_P1;PMS_P2;Temp;Humidity;BMP_temperature;BMP_pressure;BME280_temperature;BME280_humidity;BME280_pressure;Samples;Min_cycle;Max_cycle;Signal;HPM_P1;HPM_P2
2021/06/16 04:49:09;;;;;;;18.33;12.05;;;;;;;18.44;74.27;100324.91;5213911;27;20331;-68
2021/06/16 04:51:35;;;;;;;20.23;12.55;;;;;;;18.66;74.11;100326.38;5153663;27;20035;-68
2021/06/16 04:54:00;;;;;;;17.08;11.15;;;;;;;18.95;74.70;100324.91;5174011;27;35386;-72
2021/06/16 04:56:25;;;;;;;13.25;10.70;;;;;;;19.26;74.52;100334.78;5170998;27;33363;-69
2021/06/16 04:58:51;;;;;;;17.35;10.95;;;;;;;19.47;73.62;100337.28;5177578;27;29804;-71
2021/06/16 05:01:16;;;;;;;13.05;10.20;;;;;;;19.59;73.08;100338.16;5157676;27;37651;-73
2021/06/16 05:03:41;;;;;;;17.85;11.13;;;;;;;19.72;72.61;100334.47;5129418;27;28477;-70
2021/06/16 05:06:07;;;;;;;14.85;11.50;;;;;;;19.84;72.33;100342.66;5172650;27;37731;-70
2021/06/16 05:08:32;;;;;;;13.35;10.85;;;;;;;19.89;71.75;100340.94;5172051;27;20104;-70
2021/06/16 05:10:58;;;;;;;14.35;10.43;;;;;;;19.90;71.27;100336.34;5171548;27;34041;-82
2021/06/16 05:13:24;;;;;;;20.20;11.27;;;;;;;19.92;70.97;100340.47;5170503;27;32751;-72
2021/06/16 05:15:50;;;;;;;13.02;9.77;;;;;;;19.98;70.97;100352.22;5172485;27;20027;-69
2021/06/16 05:18:15;;;;;;;13.75;9.95;;;;;;;19.99;70.68;100347.69;5173072;27;20030;-69
2021/06/16 05:20:41;;;;;;;14.38;10.48;;;;;;;20.03;70.82;100349.69;5173431;27;20027;-70
2021/06/16 05:23:06;;;;;;;14.32;9.90;;;;;;;20.10;70.30;100344.19;5172770;27;21560;-69
2021/06/16 05:25:31;;;;;;;14.68;9.75;;;;;;;20.19;70.14;100340.09;5173505;27;20425;-70
2021/06/16 05:27:57;;;;;;;14.10;10.20;;;;;;;20.29;69.82;100345.75;5154864;27;20179;-71
2021/06/16 05:30:23;;;;;;;11.82;10.02;;;;;;;20.34;69.28;100346.94;5172235;27;30569;-66
2021/06/16 05:32:48;;;;;;;11.10;9.90;;;;;;;20.41;69.30;100347.69;5162197;27;20027;-80
2021/06/16 05:35:13;;;;;;;13.50;9.55;;;;;;;20.48;69.06;100342.19;5162861;27;20038;-69
2021/06/16 05:37:39;;;;;;;11.75;9.55;;;;;;;20.52;68.87;100346.88;5163619;27;37253;-68
2021/06/16 05:40:05;;;;;;;10.82;9.57;;;;;;;20.61;68.55;100341.94;5145384;27;20035;-67
2021/06/16 05:42:30;;;;;;;12.02;9.40;;;;;;;20.68;68.22;100342.72;5170259;27;20027;-67
2021/06/16 05:44:56;;;;;;;12.88;9.38;;;;;;;20.79;68.16;100331.06;5172638;27;36908;-67
2021/06/16 05:47:21;;;;;;;13.90;9.82;;;;;;;20.93;68.18;100333.56;5171788;27;35937;-71
2021/06/16 05:49:47;;;;;;;13.13;10.05;;;;;;;21.15;68.29;100349.22;5173318;27;20479;-75
2021/06/16 05:52:12;;;;;;;12.88;9.48;;;;;;;21.31;67.81;100345.78;5172487;27;36625;-66
2021/06/16 05:54:38;;;;;;;10.57;9.35;;;;;;;21.36;67.06;100339.63;5152570;27;33155;-70
2021/06/16 05:57:04;;;;;;;14.15;9.80;;;;;;;21.39;66.61;100345.41;5149290;27;20048;-71
2021/06/16 05:59:29;;;;;;;12.45;9.60;;;;;;;21.50;66.81;100351.88;5122778;27;20039;-70
2021/06/16 06:01:54;;;;;;;17.70;10.48;;;;;;;21.69;66.97;100352.53;5117860;28;20028;-70
2021/06/16 06:04:20;;;;;;;15.13;10.00;;;;;;;21.81;66.19;100366.06;5099523;28;20028;-69
2021/06/16 06:06:45;;;;;;;14.32;11.00;;;;;;;21.92;65.50;100353.53;5117561;28;20036;-67
2021/06/16 06:09:11;;;;;;;12.23;9.57;;;;;;;21.97;65.47;100359.88;5099533;28;20032;-75
2021/06/16 06:11:37;;;;;;;13.15;9.45;;;;;;;22.13;65.67;100363.72;5117193;28;20459;-75
2021/06/16 06:14:03;;;;;;;14.82;9.88;;;;;;;22.33;65.32;100362.41;5116444;28;20039;-78
2021/06/16 06:16:28;;;;;;;13.23;10.00;;;;;;;22.56;65.27;100366.13;5115756;28;20051;-71
2021/06/16 06:18:54;;;;;;;18.85;10.35;;;;;;;22.84;65.43;100362.50;5116139;28;20483;-72
2021/06/16 06:21:19;;;;;;;13.60;10.20;;;;;;;23.12;65.22;100368.88;5088391;28;32854;-67
2021/06/16 06:23:45;;;;;;;12.55;9.57;;;;;;;23.39;64.56;100369.03;5114780;28;28451;-74
2021/06/16 06:26:10;;;;;;;13.55;10.50;;;;;;;23.58;63.25;100372.28;5115516;28;35667;-80
2021/06/16 06:28:36;;;;;;;11.73;9.77;;;;;;;23.63;62.68;100369.63;5116553;28;30691;-69
2021/06/16 06:31:02;;;;;;;14.73;10.27;;;;;;;23.82;62.84;100372.84;5116784;28;20032;-70
2021/06/16 06:33:28;;;;;;;19.83;10.55;;;;;;;23.97;62.39;100374.91;5117026;28;20035;-74
2021/06/16 06:35:53;;;;;;;13.10;9.43;;;;;;;24.06;61.30;100374.47;5117095;28;26737;-68
2021/06/16 06:38:18;;;;;;;15.77;10.52;;;;;;;24.08;61.43;100375.84;5116086;28;31600;-72
2021/06/16 06:40:44;;;;;;;12.50;9.80;;;;;;;24.12;60.45;100370.72;5115962;28;38713;-68
2021/06/16 06:43:09;;;;;;;16.67;11.25;;;;;;;24.12;60.28;100371.53;5116601;28;20032;-71
2021/06/16 06:45:35;;;;;;;13.82;9.63;;;;;;;24.23;60.05;100374.38;5115727;28;38718;-71
2021/06/16 06:48:00;;;;;;;16.55;10.77;;;;;;;24.33;60.09;100369.88;5115707;28;24278;-72
2021/06/16 06:50:26;;;;;;;19.67;10.38;;;;;;;24.60;60.22;100373.63;5117084;28;20031;-72
2021/06/16 06:52:51;;;;;;;14.95;10.07;;;;;;;24.78;59.49;100373.28;5116789;28;20388;-71
2021/06/16 06:55:16;;;;;;;14.63;9.45;;;;;;;24.94;59.41;100376.91;5115731;28;33916;-70
2021/06/16 06:57:42;;;;;;;16.65;9.90;;;;;;;24.98;58.32;100374.50;5116725;28;20044;-69
2021/06/16 07:00:09;;;;;;;15.10;9.10;;;;;;;25.04;58.04;100370.72;5116225;27;27677;-70
2021/06/16 07:02:34;;;;;;;16.50;9.90;;;;;;;25.14;58.13;100370.78;5115282;28;20848;-70
2021/06/16 07:04:59;;;;;;;13.75;10.05;;;;;;;25.15;57.12;100368.88;5116952;28;20088;-70
2021/06/16 07:07:25;;;;;;;17.08;10.20;;;;;;;25.15;57.08;100368.88;5115451;28;33417;-74
2021/06/16 07:09:51;;;;;;;14.40;9.52;;;;;;;25.23;56.80;100362.91;5115221;28;37494;-75
2021/06/16 07:12:16;;;;;;;16.17;9.02;;;;;;;25.45;57.43;100367.44;5115174;28;20086;-73
2021/06/16 07:14:42;;;;;;;16.13;9.65;;;;;;;25.59;56.03;100368.59;5116142;28;20020;-68
2021/06/16 07:17:07;;;;;;;15.68;10.35;;;;;;;25.70;56.52;100371.34;5116161;28;20039;-68
2021/06/16 07:19:33;;;;;;;16.25;10.25;;;;;;;25.94;56.42;100372.53;5114789;28;23639;-73
2021/06/16 07:21:58;;;;;;;21.35;10.18;;;;;;;26.21;56.50;100376.19;5096645;28;20489;-73
2021/06/16 07:24:24;;;;;;;13.27;10.15;;;;;;;26.51;56.04;100376.22;5116462;28;20028;-71
2021/06/16 07:26:49;;;;;;;14.52;9.95;;;;;;;26.77;55.57;100372.69;5115257;28;37045;-69
2021/06/16 07:29:15;;;;;;;14.10;10.27;;;;;;;26.90;54.47;100363.94;5087626;28;40271;-71
2021/06/16 07:31:40;;;;;;;17.67;10.13;;;;;;;27.07;54.43;100371.03;5093948;28;29369;-71
2021/06/16 07:34:05;;;;;;;18.00;10.15;;;;;;;27.16;53.43;100375.66;5095876;28;20035;-68
2021/06/16 07:36:31;;;;;;;14.70;10.07;;;;;;;27.13;52.57;100369.91;5094970;28;31724;-69
2021/06/16 07:38:56;;;;;;;32.15;10.35;;;;;;;27.16;52.56;100374.81;5095856;28;21828;-70
2021/06/16 07:41:21;;;;;;;19.33;11.23;;;;;;;27.15;51.99;100368.53;5094497;28;36404;-70
2021/06/16 07:43:47;;;;;;;14.85;9.30;;;;;;;27.26;52.20;100369.34;5095093;28;31432;-69
2021/06/16 07:46:12;;;;;;;14.38;9.93;;;;;;;27.46;51.86;100364.91;5095199;28;26419;-71
2021/06/16 07:48:38;;;;;;;17.02;9.43;;;;;;;27.40;50.46;100371.53;5094782;28;35490;-70
2021/06/16 07:51:03;;;;;;;14.25;10.00;;;;;;;27.37;50.76;100370.16;5094880;28;32025;-69
2021/06/16 07:53:29;;;;;;;10.40;8.75;;;;;;;27.41;50.84;100376.72;5095143;28;20079;-72
2021/06/16 07:55:54;;;;;;;12.95;9.32;;;;;;;27.50;50.31;100369.56;5095734;28;20033;-76
2021/06/16 07:58:20;;;;;;;14.38;9.82;;;;;;;27.64;50.81;100380.72;5113167;28;20419;-82
2021/06/16 08:00:45;;;;;;;15.10;9.00;;;;;;;27.86;50.46;100371.31;5097965;28;20028;-74
2021/06/16 08:03:11;;;;;;;13.52;9.25;;;;;;;28.20;50.82;100381.56;5097656;28;20024;-72
2021/06/16 08:05:36;;;;;;;19.35;10.15;;;;;;;28.55;50.75;100382.38;5115760;28;20109;-70
2021/06/16 08:08:02;;;;;;;18.02;10.20;;;;;;;28.87;49.72;100383.81;5115761;28;20035;-72
2021/06/16 08:10:28;;;;;;;17.40;10.77;;;;;;;29.22;49.62;100384.53;5115840;28;20614;-68
2021/06/16 08:12:54;;;;;;;16.90;9.45;;;;;;;29.45;48.96;100387.63;5115267;28;20774;-68
2021/06/16 08:15:19;;;;;;;16.45;10.15;;;;;;;29.72;48.09;100376.03;5115848;27;20031;-67
2021/06/16 08:17:44;;;;;;;12.60;9.60;;;;;;;29.80;47.44;100386.38;5115669;28;20042;-68
2021/06/16 08:20:10;;;;;;;16.50;9.88;;;;;;;29.89;46.69;100383.78;5113651;28;29034;-67
2021/06/16 08:22:36;;;;;;;12.68;8.60;;;;;;;29.97;46.12;100383.13;5114259;27;20036;-67
2021/06/16 08:25:03;;;;;;;13.77;9.10;;;;;;;29.93;45.14;100376.59;5115731;28;20077;-66
2021/06/16 08:27:28;;;;;;;14.82;9.90;;;;;;;29.90;45.03;100382.69;5115159;28;20570;-70
2021/06/16 08:29:53;;;;;;;17.05;9.50;;;;;;;29.92;45.11;100371.41;5114544;28;35694;-68
2021/06/16 08:32:19;;;;;;;18.85;10.85;;;;;;;29.96;44.66;100376.00;5114866;28;29896;-67
2021/06/16 08:34:44;;;;;;;12.43;9.48;;;;;;;30.31;44.86;100382.09;5114775;28;38322;-68
2021/06/16 08:37:10;;;;;;;13.73;9.13;;;;;;;30.52;44.16;100384.53;5115161;28;29765;-69
2021/06/16 08:39:35;;;;;;;15.27;10.88;;;;;;;30.74;44.21;100383.91;5115179;28;20025;-70
2021/06/16 08:42:01;;;;;;;13.90;9.88;;;;;;;31.10;44.00;100375.03;5114673;28;37098;-69
2021/06/16 08:44:26;;;;;;;12.43;9.63;;;;;;;31.35;42.99;100381.97;5113756;28;20031;-67
2021/06/16 08:46:51;;;;;;;17.67;10.27;;;;;;;31.36;42.14;100380.88;5079012;28;30509;-68
2021/06/16 08:49:17;;;;;;;15.80;10.27;;;;;;;31.47;42.51;100381.47;5114694;28;20469;-69
2021/06/16 08:51:42;;;;;;;18.35;9.98;;;;;;;31.73;42.59;100383.72;5113832;28;40198;-70
2021/06/16 08:54:08;;;;;;;13.32;9.95;;;;;;;31.92;41.92;100374.50;5090698;28;20033;-74
2021/06/16 08:56:33;;;;;;;13.85;9.07;;;;;;;32.01;40.52;100381.75;5113377;28;20052;-72
2021/06/16 08:58:59;;;;;;;13.30;9.45;;;;;;;31.82;39.98;100381.88;5114334;28;20032;-70
2021/06/16 09:01:24;;;;;;;23.30;9.88;;;;;;;31.65;39.60;100377.00;5114947;28;20028;-65
2021/06/16 09:03:49;;;;;;;15.20;9.48;;;;;;;31.58;39.83;100379.31;5113829;28;20416;-69
2021/06/16 09:06:16;;;;;;;14.95;9.38;;;;;;;31.47;39.44;100367.72;5095891;28;38125;-68
2021/06/16 09:09:01;;;;;;;16.30;9.52;;;;;;;31.46;39.71;100376.28;5114093;28;20520;-69
2021/06/16 09:11:29;;;;;;;11.05;8.48;;;;;;;31.51;39.56;100374.22;5112126;28;20791;-67
2021/06/16 09:14:29;;;;;;;16.25;9.77;;;;;;;31.51;38.97;100374.22;5112364;28;20786;-67
2021/06/16 09:16:55;;;;;;;14.38;8.93;;;;;;;31.51;39.31;100376.97;5027912;28;41687;-68
2021/06/16 09:19:25;;;;;;;13.45;9.70;;;;;;;31.56;38.44;100376.06;5071437;28;39476;-71
2021/06/16 09:22:04;;;;;;;12.35;8.48;;;;;;;31.56;38.66;100373.31;5112224;27;20085;-68
2021/06/16 09:24:43;;;;;;;15.05;9.13;;;;;;;31.68;38.58;100365.34;5097059;28;20024;-67
2021/06/16 09:27:08;;;;;;;13.03;8.87;;;;;;;31.77;38.19;100364.63;5115064;28;20032;-68
2021/06/16 09:29:33;;;;;;;12.90;9.05;;;;;;;31.83;38.07;100375.22;5113107;27;22347;-67
2021/06/16 09:32:05;;;;;;;13.43;8.75;;;;;;;31.93;37.82;100376.94;5114619;28;20035;-71
2021/06/16 09:34:31;;;;;;;13.65;9.00;;;;;;;32.00;37.61;100373.75;5116298;27;20056;-69
2021/06/16 09:36:59;;;;;;;14.43;9.45;;;;;;;32.21;37.76;100371.41;5117889;28;20123;-69
2021/06/16 09:39:28;;;;;;;18.00;8.90;;;;;;;32.47;37.65;100377.09;5116974;28;20516;-68
2021/06/16 09:42:12;;;;;;;12.82;8.75;;;;;;;32.77;37.15;100379.44;5118136;28;20059;-66
2021/06/16 09:44:45;;;;;;;11.43;8.80;;;;;;;33.07;36.96;100384.13;5100989;28;20039;-69
2021/06/16 09:47:11;;;;;;;15.82;9.15;;;;;;;33.23;36.10;100379.00;5117692;28;20980;-68
2021/06/16 09:49:50;;;;;;;14.68;8.80;;;;;;;33.58;36.94;100378.31;5118023;28;20504;-69
2021/06/16 09:52:40;;;;;;;12.13;9.05;;;;;;;33.90;36.08;100377.09;5086446;28;20029;-73
2021/06/16 09:55:20;;;;;;;15.00;8.98;;;;;;;33.97;34.30;100373.88;5111591;28;20032;-68
2021/06/16 09:58:05;;;;;;;12.95;9.25;;;;;;;33.74;34.48;100368.44;5115779;28;20071;-69
2021/06/16 10:00:32;;;;;;;12.27;8.55;;;;;;;33.62;34.35;100371.03;5114854;28;20032;-69
2021/06/16 10:03:31;;;;;;;11.80;8.68;;;;;;;33.43;34.09;100373.25;5116419;28;20036;-71
2021/06/16 10:06:08;;;;;;;13.80;9.02;;;;;;;33.35;33.93;100369.31;5054899;28;20052;-70
2021/06/16 10:08:38;;;;;;;12.02;8.63;;;;;;;33.52;34.49;100371.34;5041203;27;20090;-72
2021/06/16 10:11:07;;;;;;;15.55;9.15;;;;;;;33.56;33.52;100369.56;5098927;28;20496;-74
2021/06/16 10:13:32;;;;;;;11.75;8.48;;;;;;;33.46;33.67;100367.06;5098734;28;20107;-73
2021/06/16 10:15:58;;;;;;;12.30;8.77;;;;;;;33.44;33.12;100369.38;5116553;28;20050;-72
2021/06/16 10:18:24;;;;;;;14.32;9.15;;;;;;;33.50;33.66;100365.31;5095809;28;20024;-72
2021/06/16 10:20:50;;;;;;;15.13;8.50;;;;;;;33.58;33.63;100364.50;5098418;28;20044;-72
2021/06/16 10:23:16;;;;;;;15.85;8.68;;;;;;;33.86;34.05;100353.19;5115940;28;20055;-69
2021/06/16 10:25:41;;;;;;;17.08;9.27;;;;;;;34.04;33.30;100354.84;5115521;28;20390;-70
2021/06/16 10:28:08;;;;;;;14.63;8.20;;;;;;;34.24;33.76;100349.78;5116467;28;20533;-71
2021/06/16 10:30:39;;;;;;;11.15;7.68;;;;;;;34.46;33.10;100359.91;5115346;28;20041;-70
2021/06/16 10:33:05;;;;;;;11.52;6.85;;;;;;;34.69;33.25;100357.72;5115183;28;20113;-80
2021/06/16 10:35:35;;;;;;;11.25;7.35;;;;;;;34.94;32.71;100358.00;5064387;28;20046;-76
2021/06/16 10:38:16;;;;;;;12.57;8.48;;;;;;;35.09;31.77;100359.41;5116329;28;20028;-74
2021/06/16 10:40:53;;;;;;;13.00;7.65;;;;;;;35.17;32.15;100354.97;5106397;28;20124;-73
2021/06/16 10:43:20;;;;;;;14.38;7.95;;;;;;;35.13;31.50;100356.78;5098507;28;20046;-71
2021/06/16 10:46:02;;;;;;;12.27;8.23;;;;;;;34.93;31.06;100350.84;5113613;28;20115;-70
2021/06/16 10:48:43;;;;;;;11.82;8.45;;;;;;;34.67;30.58;100353.66;5116070;28;20116;-71
2021/06/16 10:51:09;;;;;;;13.20;7.70;;;;;;;34.62;31.51;100354.63;5117306;28;20031;-71
2021/06/16 10:53:34;;;;;;;15.25;8.43;;;;;;;34.50;31.04;100355.34;5096947;28;20082;-70
2021/06/16 10:56:00;;;;;;;13.20;8.93;;;;;;;34.26;30.41;100355.81;5116335;28;20028;-72
2021/06/16 10:58:32;;;;;;;12.43;8.05;;;;;;;34.00;31.52;100347.53;5113358;28;20037;-69
2021/06/16 11:01:06;;;;;;;11.85;7.90;;;;;;;34.02;31.72;100345.25;5116600;28;20186;-73
2021/06/16 11:03:47;;;;;;;12.23;8.65;;;;;;;34.16;31.19;100350.59;5116534;28;20046;-67
2021/06/16 11:09:00;;;;;;;12.50;8.52;;;;;;;33.99;31.17;100340.38;5116919;28;20110;-68
2021/06/16 11:12:00;;;;;;;15.43;10.25;;;;;;;33.84;31.33;100339.72;5116045;28;20028;-67
2021/06/16 11:14:35;;;;;;;14.25;8.18;;;;;;;33.83;30.95;100337.28;5114792;28;20388;-72
2021/06/16 11:17:00;;;;;;;12.43;9.23;;;;;;;33.66;31.25;100333.34;5116450;28;20056;-70
2021/06/16 11:19:39;;;;;;;12.20;8.68;;;;;;;33.75;31.85;100325.06;5116385;28;20107;-74
2021/06/16 11:22:24;;;;;;;12.57;8.50;;;;;;;33.92;31.65;100324.28;5116347;28;20035;-70
2021/06/16 11:25:08;;;;;;;13.63;9.32;;;;;;;34.07;31.88;100325.75;5073437;28;20097;-70
2021/06/16 11:27:52;;;;;;;11.93;7.88;;;;;;;34.19;31.21;100333.38;5116112;28;20085;-70
2021/06/16 11:30:28;;;;;;;9.20;7.30;;;;;;;34.25;31.15;100326.53;5116681;28;20078;-72
2021/06/16 11:33:11;;;;;;;10.63;7.32;;;;;;;34.31;31.13;100327.19;5116424;28;20031;-71
2021/06/16 11:35:40;;;;;;;9.13;7.47;;;;;;;34.31;30.35;100325.28;5116424;28;20033;-69
2021/06/16 11:38:24;;;;;;;12.60;7.63;;;;;;;34.26;30.06;100322.63;5114822;28;20082;-71
2021/06/16 11:41:03;;;;;;;8.52;6.97;;;;;;;34.34;30.36;100323.81;5116332;28;20023;-69
2021/06/16 11:43:28;;;;;;;18.20;8.50;;;;;;;34.38;29.85;100317.28;5097096;28;20036;-68
2021/06/16 11:45:53;;;;;;;9.93;7.35;;;;;;;34.40;30.41;100328.81;5115943;28;20032;-71
2021/06/16 11:48:19;;;;;;;10.10;7.57;;;;;;;34.26;29.49;100317.09;5114694;28;20459;-67
2021/06/16 11:50:44;;;;;;;23.35;9.63;;;;;;;34.00;29.53;100315.19;5093964;28;34320;-69
2021/06/16 11:53:09;;;;;;;16.92;9.55;;;;;;;33.81;29.41;100323.00;5115399;28;39931;-71
2021/06/16 11:55:41;;;;;;;12.23;7.78;;;;;;;33.69;30.58;100318.06;5114844;28;28543;-70
2021/06/16 11:58:20;;;;;;;11.30;7.47;;;;;;;33.69;30.73;100312.53;5115023;27;20036;-68
2021/06/16 12:00:45;;;;;;;11.82;7.35;;;;;;;33.59;30.06;100313.69;5115680;28;20495;-74
2021/06/16 12:03:15;;;;;;;12.05;7.63;;;;;;;33.39;29.97;100315.91;5114676;28;30813;-71
2021/06/16 12:05:40;;;;;;;;;;;;;;;32.97;29.33;100309.09;5105663;28;20108;-73
2021/06/16 12:08:05;;;;;;;10.83;7.63;;;;;;;32.64;30.41;100299.16;5115201;28;28768;-76
2021/06/16 12:10:31;;;;;;;15.07;8.10;;;;;;;32.53;30.59;100300.56;5114832;28;25990;-76
2021/06/16 12:12:57;;;;;;;13.23;8.25;;;;;;;32.42;30.83;100299.22;5114703;28;32745;-76
2021/06/16 12:15:25;;;;;;;11.80;8.10;;;;;;;32.43;31.13;100293.38;5115211;28;20484;-71
2021/06/16 12:18:02;;;;;;;13.38;8.20;;;;;;;32.30;30.92;100280.50;5115668;28;20060;-71
2021/06/16 12:20:29;;;;;;;15.80;8.88;;;;;;;32.21;31.21;100288.72;5114715;28;20404;-80
2021/06/16 12:22:55;;;;;;;11.48;7.78;;;;;;;32.22;31.40;100282.09;5114479;28;20032;-72
2021/06/16 12:25:22;;;;;;;13.98;8.55;;;;;;;32.32;32.10;100284.56;5096009;28;20102;-73
2021/06/16 12:27:48;;;;;;;11.30;8.40;;;;;;;32.40;32.23;100278.28;5095159;28;20097;-70
2021/06/16 12:30:13;;;;;;;10.88;8.07;;;;;;;32.44;31.40;100277.66;5110343;28;20372;-67
2021/06/16 12:32:42;;;;;;;12.85;8.13;;;;;;;32.37;31.87;100272.63;5095402;28;20405;-66
2021/06/16 12:35:26;;;;;;;10.88;8.30;;;;;;;32.41;32.04;100270.84;5114495;28;20115;-66
2021/06/16 12:37:53;;;;;;;11.38;7.05;;;;;;;32.67;32.67;100270.16;5113646;28;20093;-71
2021/06/16 12:40:29;;;;;;;10.27;8.00;;;;;;;32.90;31.97;100259.88;5114226;28;20033;-67
2021/06/16 12:42:55;;;;;;;13.20;7.95;;;;;;;33.12;31.57;100267.28;5092030;28;20032;-67
2021/06/16 12:45:33;;;;;;;14.07;7.07;;;;;;;33.26;31.69;100258.91;5113837;28;29895;-71
2021/06/16 12:48:02;;;;;;;10.03;7.47;;;;;;;33.33;31.16;100259.22;5114216;28;20558;-68
2021/06/16 12:50:34;;;;;;;11.38;7.57;;;;;;;33.26;31.08;100263.59;5114154;28;20032;-68
2021/06/16 12:53:16;;;;;;;10.35;7.40;;;;;;;33.18;30.84;100257.69;5097391;28;20064;-70
2021/06/16 12:55:49;;;;;;;9.82;7.38;;;;;;;33.18;31.17;100246.66;5094997;28;20040;-76
2021/06/16 12:58:15;;;;;;;9.18;6.63;;;;;;;33.26;31.08;100247.84;5114299;28;20028;-73
2021/06/16 13:00:40;;;;;;;9.10;7.25;;;;;;;33.38;31.58;100248.03;5115167;28;20492;-73
2021/06/16 13:03:10;;;;;;;10.20;6.95;;;;;;;33.53;30.95;100240.41;5114078;28;20028;-73
2021/06/16 13:05:35;;;;;;;8.93;6.82;;;;;;;33.57;30.55;100239.44;5114975;28;20847;-73
2021/06/16 13:08:02;;;;;;;11.65;7.28;;;;;;;33.61;30.76;100234.06;5114467;27;25785;-73
2021/06/16 13:10:28;;;;;;;8.73;7.00;;;;;;;33.57;30.38;100235.84;5116278;28;20085;-74
2021/06/16 13:13:01;;;;;;;8.93;6.80;;;;;;;33.21;29.10;100234.97;5114238;28;20043;-68
2021/06/16 13:15:38;;;;;;;13.73;7.80;;;;;;;32.70;29.40;100234.50;5117509;28;20020;-67
2021/06/16 13:18:27;;;;;;;20.55;8.15;;;;;;;32.33;29.51;100233.03;5117962;28;20504;-71
2021/06/16 13:20:56;;;;;;;9.30;7.13;;;;;;;31.97;29.99;100229.19;5117999;28;20046;-67
2021/06/16 13:23:32;;;;;;;9.07;6.78;;;;;;;31.73;30.41;100232.28;5116765;28;20054;-67
2021/06/16 13:26:08;;;;;;;11.07;6.95;;;;;;;31.43;30.54;100226.31;5118247;28;20074;-71
2021/06/16 13:28:35;;;;;;;9.23;6.57;;;;;;;31.20;30.92;100220.75;5118027;28;20024;-73
2021/06/16 13:31:02;;;;;;;11.25;6.93;;;;;;;31.12;31.19;100218.72;5118280;28;20028;-67
2021/06/16 13:33:38;;;;;;;15.32;7.10;;;;;;;31.10;31.54;100225.66;5117908;28;20032;-72
2021/06/16 13:36:05;;;;;;;11.05;6.88;;;;;;;31.07;31.75;100221.63;5118356;28;20081;-69
2021/06/16 13:38:31;;;;;;;8.27;7.15;;;;;;;31.03;31.78;100221.41;5116604;28;20028;-70
2021/06/16 13:40:57;;;;;;;10.23;7.10;;;;;;;31.01;31.88;100220.84;5099657;28;20024;-70
2021/06/16 13:43:23;;;;;;;10.77;6.97;;;;;;;31.04;32.17;100219.44;5117491;28;20028;-68
2021/06/16 13:45:48;;;;;;;9.82;6.30;;;;;;;31.17;32.56;100213.13;5118174;28;20016;-75
2021/06/16 13:48:14;;;;;;;14.27;9.95;;;;;;;31.22;32.25;100217.69;5117901;28;20484;-75
2021/06/16 13:50:39;;;;;;;13.18;11.88;;;;;;;31.28;32.29;100221.16;5116009;28;20031;-74
2021/06/16 13:53:05;;;;;;;10.57;6.95;;;;;;;31.24;31.85;100215.47;5117791;27;20115;-72
2021/06/16 13:55:30;;;;;;;12.93;7.25;;;;;;;31.09;31.72;100207.53;5117769;27;20464;-71
2021/06/16 13:57:55;;;;;;;9.15;6.95;;;;;;;30.95;32.07;100211.09;5116603;27;35424;-70
2021/06/16 14:00:21;;;;;;;10.60;6.63;;;;;;;30.89;32.14;100215.06;5117904;27;20719;-71
2021/06/16 14:02:46;;;;;;;8.25;6.70;;;;;;;30.77;32.23;100210.09;5116566;28;20064;-72
2021/06/16 14:05:12;;;;;;;13.30;6.70;;;;;;;30.81;32.91;100208.34;5117220;27;36872;-68
2021/06/16 14:07:37;;;;;;;11.95;6.88;;;;;;;30.99;32.70;100209.34;5114765;28;20123;-71
2021/06/16 14:10:04;;;;;;;8.73;6.75;;;;;;;31.03;32.89;100199.41;5117665;28;20059;-71
2021/06/16 14:12:29;;;;;;;9.15;7.15;;;;;;;31.12;33.22;100202.22;5116458;28;20036;-77
2021/06/16 14:14:55;;;;;;;12.93;6.85;;;;;;;31.09;32.78;100202.03;5098008;28;39450;-75
2021/06/16 14:17:20;;;;;;;14.32;7.80;;;;;;;31.16;32.92;100196.94;5117106;28;20365;-75
2021/06/16 14:19:48;;;;;;;12.57;7.32;;;;;;;31.18;32.86;100200.16;5116617;27;20457;-76
